Gifford, Iowa
Current Conditions -  °F | °C
As of 9:53 AM on Thursday 29 Jan 2015 (Local Time) from KMIW Reporting Station
Overcast Overcast  
Wind Chill: -8°   Ceiling: 1200
Heat Index:   Visibility: 10mi
Dew Point: -2°   Wind: 28mph
Humidity: 85%   Direction: 320°NW
Pressure: 30.16"   Gusts: 38mph
Location:  42.29°N, 93.09°W
Report Text: KMIW 291553Z AUTO 32024G33KT 10SM OVC012 00/M02 A3016 RMK AO2 PK WND 32033/1528 SLP224 T00001022
Loading
Personal Weather Stations






























Interactive Weather Map New forecast layout! Learn more

10-Day Weather Forecast

Advertisements
Track Severe Weather on mobile